Time;durP1;ratioP1;P1;durP2;ratioP2;P2;SDS_P1;SDS_P2;PMS_P1;PMS_P2;Temp;Humidity;BMP_temperature;BMP_pressure;BME280_temperature;BME280_humidity;BME280_pressure;Samples;Min_cycle;Max_cycle;Signal;HPM_P1;HPM_P2
2022/12/02 12:10:46;;;;;;;19.33;12.40;;;;;;;2.03;100.00;99165.97;5151278;27;21292;-83
2022/12/02 12:13:30;;;;;;;18.80;12.30;;;;;;;2.44;100.00;99124.03;5116015;27;39168;-83
2022/12/02 12:16:00;;;;;;;17.83;11.67;;;;;;;2.87;100.00;99117.66;5116268;27;41128;-85
2022/12/02 12:18:44;;;;;;;16.80;11.67;;;;;;;3.48;100.00;99163.03;5117158;27;43026;-84
2022/12/02 12:21:13;;;;;;;15.50;10.83;;;;;;;3.61;99.01;99169.63;5112587;27;42279;-89
2022/12/02 12:23:43;;;;;;;15.50;10.90;;;;;;;3.65;96.13;99160.78;5112932;27;39009;-82
2022/12/02 12:26:32;;;;;;;15.77;10.67;;;;;;;3.84;95.16;99161.94;5132487;27;41045;-80
2022/12/02 12:29:16;;;;;;;14.50;11.00;;;;;;;3.84;93.74;99130.50;5114781;27;42689;-82
2022/12/02 12:31:44;;;;;;;13.83;10.40;;;;;;;4.08;92.52;99152.44;5115105;27;42561;-78
2022/12/02 12:34:15;;;;;;;16.17;11.00;;;;;;;4.00;91.17;99145.75;5131657;27;40203;-79
2022/12/02 12:36:43;;;;;;;13.10;9.67;;;;;;;4.05;91.09;99135.97;5114987;27;42436;-80
2022/12/02 12:39:13;;;;;;;14.20;10.63;;;;;;;4.25;90.82;99151.91;5114029;27;42065;-84
2022/12/02 12:41:41;;;;;;;12.50;10.07;;;;;;;4.27;90.10;99150.97;5131587;27;42073;-82
2022/12/02 12:44:10;;;;;;;13.90;10.00;;;;;;;4.30;89.19;99156.13;5131164;27;38913;-81
2022/12/02 12:46:37;;;;;;;13.40;9.97;;;;;;;4.18;89.17;99147.78;5131583;27;41686;-83
2022/12/02 12:49:05;;;;;;;12.80;9.70;;;;;;;4.23;88.74;99151.09;5131374;27;42667;-85
2022/12/02 12:51:32;;;;;;;14.93;10.13;;;;;;;4.13;89.00;99126.97;5149861;27;42858;-80
2022/12/02 12:54:00;;;;;;;17.30;11.57;;;;;;;4.18;88.79;99118.97;5114273;27;40164;-84
2022/12/02 12:56:27;;;;;;;13.83;9.83;;;;;;;4.31;88.24;99144.72;5115325;27;41883;-90
2022/12/02 12:58:55;;;;;;;17.07;11.50;;;;;;;4.14;88.22;99101.63;5114048;27;42021;-81
2022/12/02 13:01:24;;;;;;;15.10;10.27;;;;;;;4.29;88.01;99137.81;5114572;27;41356;-82
2022/12/02 13:03:51;;;;;;;16.43;10.77;;;;;;;4.35;88.30;99129.72;5131055;27;38986;-78
2022/12/02 13:09:21;;;;;;;17.10;11.97;;;;;;;4.33;87.70;99149.91;5112807;27;41922;-83
2022/12/02 13:11:49;;;;;;;16.60;12.13;;;;;;;4.08;87.65;99099.22;5114789;27;43541;-82
2022/12/02 13:14:16;;;;;;;17.87;12.43;;;;;;;4.27;87.51;99143.09;5113740;27;39654;-81
2022/12/02 13:16:45;;;;;;;19.03;12.10;;;;;;;4.27;87.39;99132.63;5114040;27;40627;-83
2022/12/02 13:20:00;;;;;;;18.50;13.33;;;;;;;4.17;87.22;99106.75;5113136;27;41583;-88
2022/12/02 13:22:49;;;;;;;18.70;12.50;;;;;;;3.84;86.85;99065.00;5101096;27;42563;-89
2022/12/02 13:25:17;;;;;;;14.83;10.23;;;;;;;4.10;86.79;99094.75;5100980;27;40594;-83
2022/12/02 13:27:45;;;;;;;15.87;10.10;;;;;;;4.01;86.37;99106.38;5117289;27;42157;-79
2022/12/02 13:30:16;;;;;;;15.67;11.10;;;;;;;3.67;86.12;99075.16;5099700;27;41852;-86
2022/12/02 13:32:45;;;;;;;15.23;11.43;;;;;;;4.14;86.72;99133.06;5100432;27;41240;-84
2022/12/02 13:35:15;;;;;;;15.97;11.60;;;;;;;4.04;86.14;99127.25;5116908;27;41337;-82
2022/12/02 13:37:43;;;;;;;17.83;12.27;;;;;;;3.98;86.01;99109.97;5117588;27;40675;-79
2022/12/02 13:40:14;;;;;;;14.40;10.47;;;;;;;4.16;86.21;99137.34;5099781;27;42557;-80
2022/12/02 13:42:42;;;;;;;14.57;10.57;;;;;;;4.17;85.94;99138.22;5117595;27;42688;-81
2022/12/02 13:45:11;;;;;;;15.97;10.27;;;;;;;4.14;85.68;99138.31;5099760;27;40532;-83
2022/12/02 13:47:39;;;;;;;16.83;10.80;;;;;;;4.13;85.83;99131.34;5100105;27;40729;-85
2022/12/02 13:50:09;;;;;;;14.37;10.27;;;;;;;4.08;85.71;99128.03;5099198;27;41718;-83
2022/12/02 13:52:37;;;;;;;15.30;11.00;;;;;;;4.15;85.79;99134.78;5136571;27;41914;-85
2022/12/02 13:55:06;;;;;;;16.63;10.63;;;;;;;4.04;85.23;99123.78;5103261;27;39460;-87
2022/12/02 13:57:34;;;;;;;14.80;10.90;;;;;;;4.10;85.37;99144.53;5102032;27;40245;-84
